sensor_id;sensor_type;location;lat;lon;timestamp;pressure;altitude;pressure_sealevel;temperature;humidity
23176;BME280;19910;42.652;23.332;2023-02-02T00:01:15;94690.44;;;4.84;56.50
23176;BME280;19910;42.652;23.332;2023-02-02T00:03:42;94694.66;;;4.90;56.21
23176;BME280;19910;42.652;23.332;2023-02-02T00:06:09;94691.53;;;4.83;56.79
23176;BME280;19910;42.652;23.332;2023-02-02T00:08:37;94697.84;;;4.92;55.95
23176;BME280;19910;42.652;23.332;2023-02-02T00:11:04;94696.91;;;4.83;56.43
23176;BME280;19910;42.652;23.332;2023-02-02T00:13:31;94696.19;;;4.78;56.72
23176;BME280;19910;42.652;23.332;2023-02-02T00:16:32;94687.91;;;4.74;57.08
23176;BME280;19910;42.652;23.332;2023-02-02T00:19:00;94695.22;;;4.69;57.32
23176;BME280;19910;42.652;23.332;2023-02-02T00:21:28;94683.41;;;4.70;56.62
23176;BME280;19910;42.652;23.332;2023-02-02T00:24:04;94683.63;;;4.73;56.63
23176;BME280;19910;42.652;23.332;2023-02-02T00:26:34;94688.47;;;4.71;57.07
23176;BME280;19910;42.652;23.332;2023-02-02T00:29:01;94689.28;;;4.72;56.86
23176;BME280;19910;42.652;23.332;2023-02-02T00:31:28;94691.09;;;4.76;57.13
23176;BME280;19910;42.652;23.332;2023-02-02T00:33:55;94690.38;;;4.71;57.43
23176;BME280;19910;42.652;23.332;2023-02-02T00:36:22;94699.66;;;4.78;57.38
23176;BME280;19910;42.652;23.332;2023-02-02T00:38:49;94697.75;;;4.79;57.62
23176;BME280;19910;42.652;23.332;2023-02-02T00:41:18;94704.53;;;4.76;58.36
23176;BME280;19910;42.652;23.332;2023-02-02T00:43:45;94699.72;;;4.73;58.71
23176;BME280;19910;42.652;23.332;2023-02-02T00:46:33;94715.31;;;4.71;59.37
23176;BME280;19910;42.652;23.332;2023-02-02T00:48:58;94720.25;;;4.64;60.64
23176;BME280;19910;42.652;23.332;2023-02-02T00:51:25;94713.34;;;4.58;60.78
23176;BME280;19910;42.652;23.332;2023-02-02T00:53:52;94713.75;;;4.46;60.57
23176;BME280;19910;42.652;23.332;2023-02-02T00:56:20;94708.16;;;4.43;60.73
23176;BME280;19910;42.652;23.332;2023-02-02T00:58:46;94717.28;;;4.42;61.73
23176;BME280;19910;42.652;23.332;2023-02-02T01:01:17;94712.38;;;4.49;61.57
23176;BME280;19910;42.652;23.332;2023-02-02T01:03:45;94703.38;;;4.40;62.10
23176;BME280;19910;42.652;23.332;2023-02-02T01:06:12;94698.00;;;4.40;62.52
23176;BME280;19910;42.652;23.332;2023-02-02T01:08:39;94694.38;;;4.31;62.78
23176;BME280;19910;42.652;23.332;2023-02-02T01:11:06;94693.94;;;4.23;62.81
23176;BME280;19910;42.652;23.332;2023-02-02T01:13:35;94681.59;;;4.22;63.24
23176;BME280;19910;42.652;23.332;2023-02-02T01:16:02;94690.81;;;4.11;63.61
23176;BME280;19910;42.652;23.332;2023-02-02T01:18:29;94681.25;;;4.05;63.88
23176;BME280;19910;42.652;23.332;2023-02-02T01:20:57;94677.03;;;3.99;64.10
23176;BME280;19910;42.652;23.332;2023-02-02T01:23:23;94676.00;;;3.95;63.79
23176;BME280;19910;42.652;23.332;2023-02-02T01:25:52;94679.13;;;4.02;63.66
23176;BME280;19910;42.652;23.332;2023-02-02T01:28:19;94677.03;;;3.99;63.45
23176;BME280;19910;42.652;23.332;2023-02-02T01:30:47;94679.66;;;4.04;63.46
23176;BME280;19910;42.652;23.332;2023-02-02T01:33:14;94674.34;;;3.99;64.00
23176;BME280;19910;42.652;23.332;2023-02-02T01:35:44;94672.25;;;3.96;64.02
23176;BME280;19910;42.652;23.332;2023-02-02T01:38:11;94666.19;;;3.85;63.76
23176;BME280;19910;42.652;23.332;2023-02-02T01:40:43;94671.25;;;3.87;64.33
23176;BME280;19910;42.652;23.332;2023-02-02T01:43:22;94670.19;;;3.88;64.20
23176;BME280;19910;42.652;23.332;2023-02-02T01:45:51;94654.66;;;3.85;64.21
23176;BME280;19910;42.652;23.332;2023-02-02T01:48:19;94661.41;;;3.82;64.01
23176;BME280;19910;42.652;23.332;2023-02-02T01:50:49;94657.69;;;4.02;64.22
23176;BME280;19910;42.652;23.332;2023-02-02T01:53:19;94652.91;;;3.99;63.99
23176;BME280;19910;42.652;23.332;2023-02-02T01:55:47;94650.81;;;3.96;64.08
23176;BME280;19910;42.652;23.332;2023-02-02T01:58:18;94652.38;;;3.97;64.25
23176;BME280;19910;42.652;23.332;2023-02-02T02:00:47;94642.09;;;4.09;62.76
23176;BME280;19910;42.652;23.332;2023-02-02T02:03:20;94634.47;;;4.16;62.01
23176;BME280;19910;42.652;23.332;2023-02-02T02:05:50;94621.25;;;4.01;62.35
23176;BME280;19910;42.652;23.332;2023-02-02T02:08:21;94636.31;;;3.97;63.61
23176;BME280;19910;42.652;23.332;2023-02-02T02:10:49;94629.03;;;4.03;63.03
23176;BME280;19910;42.652;23.332;2023-02-02T02:13:16;94634.63;;;4.06;62.89
23176;BME280;19910;42.652;23.332;2023-02-02T02:15:49;94637.44;;;4.15;62.22
23176;BME280;19910;42.652;23.332;2023-02-02T02:18:44;94647.81;;;3.98;63.32
23176;BME280;19910;42.652;23.332;2023-02-02T02:21:24;94645.53;;;3.86;64.33
23176;BME280;19910;42.652;23.332;2023-02-02T02:24:43;94643.75;;;3.81;64.48
23176;BME280;19910;42.652;23.332;2023-02-02T02:33:39;94645.34;;;3.82;64.05
23176;BME280;19910;42.652;23.332;2023-02-02T02:36:17;94642.81;;;3.91;63.10
23176;BME280;19910;42.652;23.332;2023-02-02T02:38:50;94642.19;;;3.99;63.71
23176;BME280;19910;42.652;23.332;2023-02-02T02:41:20;94637.91;;;3.98;63.35
23176;BME280;19910;42.652;23.332;2023-02-02T02:43:51;94643.63;;;3.91;63.25
23176;BME280;19910;42.652;23.332;2023-02-02T02:46:21;94639.97;;;3.82;63.38
23176;BME280;19910;42.652;23.332;2023-02-02T02:48:50;94647.25;;;3.77;63.65
23176;BME280;19910;42.652;23.332;2023-02-02T02:51:43;94642.22;;;3.70;64.15
23176;BME280;19910;42.652;23.332;2023-02-02T02:54:12;94641.22;;;3.66;63.85
23176;BME280;19910;42.652;23.332;2023-02-02T02:56:48;94640.34;;;3.71;63.37
23176;BME280;19910;42.652;23.332;2023-02-02T02:59:23;94643.41;;;3.59;63.86
23176;BME280;19910;42.652;23.332;2023-02-02T03:02:03;94654.53;;;3.47;64.84
23176;BME280;19910;42.652;23.332;2023-02-02T03:04:39;94644.69;;;3.67;63.89
23176;BME280;19910;42.652;23.332;2023-02-02T03:07:17;94635.50;;;3.73;62.64
23176;BME280;19910;42.652;23.332;2023-02-02T03:09:48;94630.72;;;3.70;62.22
23176;BME280;19910;42.652;23.332;2023-02-02T03:12:16;94645.16;;;3.74;62.16
23176;BME280;19910;42.652;23.332;2023-02-02T03:14:43;94631.31;;;3.67;62.70
23176;BME280;19910;42.652;23.332;2023-02-02T03:17:10;94637.53;;;3.57;63.33
23176;BME280;19910;42.652;23.332;2023-02-02T03:19:38;94639.75;;;3.79;61.48
23176;BME280;19910;42.652;23.332;2023-02-02T03:22:05;94642.31;;;3.65;63.52
23176;BME280;19910;42.652;23.332;2023-02-02T03:24:31;94635.13;;;3.32;65.50
23176;BME280;19910;42.652;23.332;2023-02-02T03:26:58;94640.13;;;3.09;66.84
23176;BME280;19910;42.652;23.332;2023-02-02T03:29:25;94637.56;;;2.99;67.91
23176;BME280;19910;42.652;23.332;2023-02-02T03:31:53;94628.13;;;3.07;66.66
23176;BME280;19910;42.652;23.332;2023-02-02T03:34:19;94630.94;;;3.49;63.25
23176;BME280;19910;42.652;23.332;2023-02-02T03:36:47;94636.63;;;3.14;66.61
23176;BME280;19910;42.652;23.332;2023-02-02T03:39:14;94626.66;;;3.19;64.72
23176;BME280;19910;42.652;23.332;2023-02-02T03:41:41;94626.16;;;3.46;61.95
23176;BME280;19910;42.652;23.332;2023-02-02T03:44:08;94617.69;;;3.34;64.84
23176;BME280;19910;42.652;23.332;2023-02-02T03:46:34;94643.38;;;3.06;66.51
23176;BME280;19910;42.652;23.332;2023-02-02T03:49:01;94636.75;;;2.99;67.51
23176;BME280;19910;42.652;23.332;2023-02-02T03:51:28;94633.69;;;2.76;68.75
23176;BME280;19910;42.652;23.332;2023-02-02T03:53:56;94635.63;;;2.71;68.33
23176;BME280;19910;42.652;23.332;2023-02-02T03:56:22;94653.91;;;2.93;67.31
23176;BME280;19910;42.652;23.332;2023-02-02T03:58:49;94648.47;;;3.37;62.33
23176;BME280;19910;42.652;23.332;2023-02-02T04:01:16;94639.34;;;3.67;61.62
23176;BME280;19910;42.652;23.332;2023-02-02T04:03:43;94643.63;;;3.10;66.73
23176;BME280;19910;42.652;23.332;2023-02-02T04:06:10;94657.72;;;2.81;68.68
23176;BME280;19910;42.652;23.332;2023-02-02T04:08:37;94651.50;;;2.52;70.28
23176;BME280;19910;42.652;23.332;2023-02-02T04:11:08;94658.53;;;2.38;71.32
23176;BME280;19910;42.652;23.332;2023-02-02T04:13:35;94649.56;;;2.19;72.34
23176;BME280;19910;42.652;23.332;2023-02-02T04:16:02;94668.31;;;2.03;72.93
23176;BME280;19910;42.652;23.332;2023-02-02T04:18:28;94661.94;;;1.89;74.04
23176;BME280;19910;42.652;23.332;2023-02-02T04:20:56;94669.97;;;1.84;74.90
23176;BME280;19910;42.652;23.332;2023-02-02T04:23:24;94664.88;;;1.88;73.53
23176;BME280;19910;42.652;23.332;2023-02-02T04:25:51;94670.19;;;1.93;73.67
23176;BME280;19910;42.652;23.332;2023-02-02T04:28:19;94667.78;;;1.96;73.12
23176;BME280;19910;42.652;23.332;2023-02-02T04:30:48;94672.06;;;1.92;73.45
23176;BME280;19910;42.652;23.332;2023-02-02T04:33:15;94682.25;;;1.85;73.82
23176;BME280;19910;42.652;23.332;2023-02-02T04:35:42;94665.38;;;1.95;73.31
23176;BME280;19910;42.652;23.332;2023-02-02T04:38:09;94657.41;;;1.79;73.99
23176;BME280;19910;42.652;23.332;2023-02-02T04:40:37;94668.94;;;1.75;73.92
23176;BME280;19910;42.652;23.332;2023-02-02T04:43:04;94666.84;;;1.62;74.54
23176;BME280;19910;42.652;23.332;2023-02-02T04:45:32;94676.44;;;1.63;74.89
23176;BME280;19910;42.652;23.332;2023-02-02T04:47:59;94674.56;;;1.63;73.56
23176;BME280;19910;42.652;23.332;2023-02-02T04:50:26;94670.56;;;1.51;74.83
23176;BME280;19910;42.652;23.332;2023-02-02T04:52:53;94690.34;;;1.50;75.57
23176;BME280;19910;42.652;23.332;2023-02-02T04:55:20;94688.22;;;1.36;76.81
23176;BME280;19910;42.652;23.332;2023-02-02T04:57:47;94676.50;;;1.17;76.81
23176;BME280;19910;42.652;23.332;2023-02-02T05:00:14;94686.09;;;1.13;77.17
23176;BME280;19910;42.652;23.332;2023-02-02T05:02:42;94682.88;;;1.11;77.44
23176;BME280;19910;42.652;23.332;2023-02-02T05:05:11;94681.81;;;1.07;77.36
23176;BME280;19910;42.652;23.332;2023-02-02T05:07:38;94693.03;;;1.04;77.97
23176;BME280;19910;42.652;23.332;2023-02-02T05:10:06;94680.19;;;0.96;77.94
23176;BME280;19910;42.652;23.332;2023-02-02T05:12:37;94659.94;;;0.80;77.62
23176;BME280;19910;42.652;23.332;2023-02-02T05:15:05;94685.56;;;1.06;76.88
23176;BME280;19910;42.652;23.332;2023-02-02T05:17:32;94674.88;;;1.26;74.74
23176;BME280;19910;42.652;23.332;2023-02-02T05:20:00;94679.13;;;1.42;74.06
23176;BME280;19910;42.652;23.332;2023-02-02T05:22:27;94676.97;;;1.60;72.76
23176;BME280;19910;42.652;23.332;2023-02-02T05:24:54;94672.44;;;1.60;73.16
23176;BME280;19910;42.652;23.332;2023-02-02T05:27:20;94656.63;;;1.84;70.12
23176;BME280;19910;42.652;23.332;2023-02-02T05:29:47;94652.88;;;1.90;69.76
23176;BME280;19910;42.652;23.332;2023-02-02T05:32:14;94664.66;;;1.74;70.47
23176;BME280;19910;42.652;23.332;2023-02-02T05:34:41;94670.31;;;1.57;71.06
23176;BME280;19910;42.652;23.332;2023-02-02T05:37:09;94670.56;;;1.51;72.30
23176;BME280;19910;42.652;23.332;2023-02-02T05:39:36;94667.81;;;1.86;68.89
23176;BME280;19910;42.652;23.332;2023-02-02T05:42:03;94674.81;;;1.77;71.26
23176;BME280;19910;42.652;23.332;2023-02-02T05:44:30;94677.41;;;1.92;70.38
23176;BME280;19910;42.652;23.332;2023-02-02T05:46:56;94696.41;;;1.91;71.34
23176;BME280;19910;42.652;23.332;2023-02-02T05:49:23;94684.41;;;1.73;72.84
23176;BME280;19910;42.652;23.332;2023-02-02T05:51:53;94683.88;;;1.66;72.62
23176;BME280;19910;42.652;23.332;2023-02-02T05:54:23;94670.00;;;1.69;70.85
23176;BME280;19910;42.652;23.332;2023-02-02T05:56:51;94683.31;;;1.84;70.90
23176;BME280;19910;42.652;23.332;2023-02-02T05:59:19;94689.47;;;1.90;71.14
23176;BME280;19910;42.652;23.332;2023-02-02T06:01:46;94684.84;;;2.10;68.99
23176;BME280;19910;42.652;23.332;2023-02-02T06:04:13;94692.13;;;2.54;68.12
23176;BME280;19910;42.652;23.332;2023-02-02T06:06:40;94678.31;;;2.37;69.20
23176;BME280;19910;42.652;23.332;2023-02-02T06:09:08;94683.22;;;2.14;70.46
23176;BME280;19910;42.652;23.332;2023-02-02T06:11:36;94696.63;;;2.04;70.75
23176;BME280;19910;42.652;23.332;2023-02-02T06:14:03;94694.50;;;2.01;71.30
23176;BME280;19910;42.652;23.332;2023-02-02T06:16:30;94698.78;;;1.97;71.69
23176;BME280;19910;42.652;23.332;2023-02-02T06:18:57;94686.66;;;2.25;71.16
23176;BME280;19910;42.652;23.332;2023-02-02T06:21:24;94700.97;;;2.94;69.08
23176;BME280;19910;42.652;23.332;2023-02-02T06:23:51;94699.34;;;3.66;66.22
23176;BME280;19910;42.652;23.332;2023-02-02T06:26:18;94715.22;;;3.86;66.20
23176;BME280;19910;42.652;23.332;2023-02-02T06:28:50;94715.03;;;3.48;67.64
23176;BME280;19910;42.652;23.332;2023-02-02T06:31:17;94704.91;;;2.62;70.73
23176;BME280;19910;42.652;23.332;2023-02-02T06:33:45;94726.47;;;2.32;72.28
23176;BME280;19910;42.652;23.332;2023-02-02T06:36:12;94732.44;;;1.83;74.80
23176;BME280;19910;42.652;23.332;2023-02-02T06:38:39;94728.47;;;1.70;75.96
23176;BME280;19910;42.652;23.332;2023-02-02T06:41:05;94727.91;;;1.78;76.06
23176;BME280;19910;42.652;23.332;2023-02-02T06:43:32;94743.16;;;1.73;76.10
23176;BME280;19910;42.652;23.332;2023-02-02T06:46:00;94755.47;;;1.64;76.53
23176;BME280;19910;42.652;23.332;2023-02-02T06:48:27;94746.09;;;1.66;77.03
23176;BME280;19910;42.652;23.332;2023-02-02T06:50:56;94733.53;;;1.67;76.98
23176;BME280;19910;42.652;23.332;2023-02-02T06:53:23;94725.84;;;1.45;77.76
23176;BME280;19910;42.652;23.332;2023-02-02T06:55:54;94749.56;;;1.72;77.43
23176;BME280;19910;42.652;23.332;2023-02-02T06:58:21;94733.56;;;1.77;76.98
23176;BME280;19910;42.652;23.332;2023-02-02T07:00:48;94731.97;;;1.61;76.61
23176;BME280;19910;42.652;23.332;2023-02-02T07:03:19;94736.69;;;1.94;74.32
23176;BME280;19910;42.652;23.332;2023-02-02T07:05:46;94754.25;;;2.31;71.93
23176;BME280;19910;42.652;23.332;2023-02-02T07:08:13;94759.59;;;2.21;73.99
23176;BME280;19910;42.652;23.332;2023-02-02T07:10:39;94757.53;;;2.02;74.48
23176;BME280;19910;42.652;23.332;2023-02-02T07:13:07;94743.03;;;2.24;75.12
23176;BME280;19910;42.652;23.332;2023-02-02T07:15:34;94742.63;;;2.61;72.65
23176;BME280;19910;42.652;23.332;2023-02-02T07:18:01;94731.09;;;2.70;72.97
23176;BME280;19910;42.652;23.332;2023-02-02T07:20:29;94729.88;;;2.97;72.44
23176;BME280;19910;42.652;23.332;2023-02-02T07:22:55;94729.88;;;3.31;70.03
23176;BME280;19910;42.652;23.332;2023-02-02T07:25:25;94740.53;;;3.41;67.08
23176;BME280;19910;42.652;23.332;2023-02-02T07:27:55;94752.53;;;3.43;67.49
23176;BME280;19910;42.652;23.332;2023-02-02T07:30:24;94746.94;;;3.01;70.01
23176;BME280;19910;42.652;23.332;2023-02-02T07:32:54;94742.28;;;2.77;70.93
23176;BME280;19910;42.652;23.332;2023-02-02T07:35:21;94770.63;;;2.78;72.31
23176;BME280;19910;42.652;23.332;2023-02-02T07:37:51;94767.00;;;2.49;72.42
23176;BME280;19910;42.652;23.332;2023-02-02T07:40:19;94762.66;;;2.63;72.96
23176;BME280;19910;42.652;23.332;2023-02-02T07:42:46;94757.59;;;3.11;69.92
23176;BME280;19910;42.652;23.332;2023-02-02T07:45:13;94752.25;;;3.79;66.87
23176;BME280;19910;42.652;23.332;2023-02-02T07:47:40;94760.06;;;3.75;67.75
23176;BME280;19910;42.652;23.332;2023-02-02T07:50:08;94719.44;;;4.40;62.70
23176;BME280;19910;42.652;23.332;2023-02-02T07:52:52;94726.19;;;3.55;68.00
23176;BME280;19910;42.652;23.332;2023-02-02T07:55:19;94729.66;;;3.27;69.54
23176;BME280;19910;42.652;23.332;2023-02-02T07:57:46;94724.38;;;3.17;70.67
23176;BME280;19910;42.652;23.332;2023-02-02T08:00:13;94703.88;;;3.36;69.65
23176;BME280;19910;42.652;23.332;2023-02-02T08:02:40;94715.34;;;3.42;69.38
23176;BME280;19910;42.652;23.332;2023-02-02T08:05:07;94716.25;;;3.61;68.40
23176;BME280;19910;42.652;23.332;2023-02-02T08:07:34;94704.16;;;3.69;68.38
23176;BME280;19910;42.652;23.332;2023-02-02T08:10:03;94714.66;;;3.89;67.97
23176;BME280;19910;42.652;23.332;2023-02-02T08:12:30;94701.84;;;4.34;66.89
23176;BME280;19910;42.652;23.332;2023-02-02T08:14:57;94691.69;;;4.73;64.95
23176;BME280;19910;42.652;23.332;2023-02-02T08:17:24;94699.50;;;5.07;63.54
23176;BME280;19910;42.652;23.332;2023-02-02T08:19:50;94691.59;;;5.16;62.60
23176;BME280;19910;42.652;23.332;2023-02-02T08:22:17;94686.16;;;5.21;61.95
23176;BME280;19910;42.652;23.332;2023-02-02T08:24:44;94678.69;;;5.18;62.66
23176;BME280;19910;42.652;23.332;2023-02-02T08:27:14;94688.84;;;5.02;63.40
23176;BME280;19910;42.652;23.332;2023-02-02T08:29:41;94687.63;;;4.94;63.94
23176;BME280;19910;42.652;23.332;2023-02-02T08:32:08;94696.88;;;4.46;66.32
23176;BME280;19910;42.652;23.332;2023-02-02T08:34:35;94692.09;;;4.19;67.53
23176;BME280;19910;42.652;23.332;2023-02-02T08:37:02;94676.94;;;4.09;68.12
23176;BME280;19910;42.652;23.332;2023-02-02T08:39:31;94687.66;;;4.09;67.43
23176;BME280;19910;42.652;23.332;2023-02-02T08:41:58;94693.38;;;3.98;68.19
23176;BME280;19910;42.652;23.332;2023-02-02T08:44:26;94687.84;;;4.13;68.24
23176;BME280;19910;42.652;23.332;2023-02-02T08:46:53;94689.56;;;4.27;67.33
23176;BME280;19910;42.652;23.332;2023-02-02T08:49:20;94678.16;;;4.41;66.39
23176;BME280;19910;42.652;23.332;2023-02-02T08:51:47;94666.34;;;4.42;65.69
23176;BME280;19910;42.652;23.332;2023-02-02T08:54:13;94658.94;;;4.52;65.48
23176;BME280;19910;42.652;23.332;2023-02-02T08:56:40;94663.03;;;4.69;65.33
23176;BME280;19910;42.652;23.332;2023-02-02T08:59:07;94658.47;;;4.69;64.38
23176;BME280;19910;42.652;23.332;2023-02-02T09:01:38;94660.34;;;4.87;64.96
23176;BME280;19910;42.652;23.332;2023-02-02T09:04:06;94675.09;;;4.90;65.80
23176;BME280;19910;42.652;23.332;2023-02-02T09:06:35;94659.91;;;4.80;65.96
23176;BME280;19910;42.652;23.332;2023-02-02T09:09:03;94671.59;;;4.71;66.21
23176;BME280;19910;42.652;23.332;2023-02-02T09:11:30;94673.41;;;4.75;66.14
23176;BME280;19910;42.652;23.332;2023-02-02T09:13:58;94667.31;;;4.88;66.41
23176;BME280;19910;42.652;23.332;2023-02-02T09:16:26;94657.16;;;4.85;66.49
23176;BME280;19910;42.652;23.332;2023-02-02T09:18:55;94661.50;;;4.81;66.95
23176;BME280;19910;42.652;23.332;2023-02-02T09:21:22;94661.13;;;5.07;67.15
23176;BME280;19910;42.652;23.332;2023-02-02T09:23:51;94657.28;;;5.13;66.43
23176;BME280;19910;42.652;23.332;2023-02-02T09:26:20;94671.13;;;5.20;66.92
23176;BME280;19910;42.652;23.332;2023-02-02T09:28:50;94664.09;;;5.24;66.29
23176;BME280;19910;42.652;23.332;2023-02-02T09:31:18;94673.75;;;5.25;66.33
23176;BME280;19910;42.652;23.332;2023-02-02T09:33:45;94665.50;;;5.35;66.16
23176;BME280;19910;42.652;23.332;2023-02-02T09:36:16;94655.00;;;5.20;65.78
23176;BME280;19910;42.652;23.332;2023-02-02T09:38:44;94656.59;;;4.88;66.66
23176;BME280;19910;42.652;23.332;2023-02-02T09:41:58;94648.44;;;4.93;66.67
23176;BME280;19910;42.652;23.332;2023-02-02T09:47:21;94643.22;;;5.02;66.51
23176;BME280;19910;42.652;23.332;2023-02-02T09:49:57;94658.31;;;5.17;66.45
23176;BME280;19910;42.652;23.332;2023-02-02T09:52:28;94639.66;;;5.39;65.84
23176;BME280;19910;42.652;23.332;2023-02-02T09:54:59;94636.97;;;5.71;64.83
23176;BME280;19910;42.652;23.332;2023-02-02T09:57:32;94624.47;;;6.08;64.09
23176;BME280;19910;42.652;23.332;2023-02-02T10:00:03;94624.72;;;6.48;62.91
23176;BME280;19910;42.652;23.332;2023-02-02T10:02:35;94621.81;;;6.58;62.60
23176;BME280;19910;42.652;23.332;2023-02-02T10:05:08;94619.19;;;6.80;61.19
23176;BME280;19910;42.652;23.332;2023-02-02T10:07:42;94625.38;;;7.25;60.52
23176;BME280;19910;42.652;23.332;2023-02-02T10:10:14;94609.31;;;6.98;59.29
23176;BME280;19910;42.652;23.332;2023-02-02T10:12:48;94589.66;;;6.75;60.86
23176;BME280;19910;42.652;23.332;2023-02-02T10:15:21;94604.00;;;7.29;60.09
23176;BME280;19910;42.652;23.332;2023-02-02T10:17:59;94585.47;;;7.27;57.94
23176;BME280;19910;42.652;23.332;2023-02-02T10:20:37;94590.53;;;7.51;57.48
23176;BME280;19910;42.652;23.332;2023-02-02T10:23:20;94576.56;;;8.28;52.29
23176;BME280;19910;42.652;23.332;2023-02-02T10:25:54;94576.34;;;8.81;50.54
23176;BME280;19910;42.652;23.332;2023-02-02T10:28:32;94579.81;;;9.08;49.39
23176;BME280;19910;42.652;23.332;2023-02-02T10:31:01;94567.44;;;9.71;48.67
23176;BME280;19910;42.652;23.332;2023-02-02T10:33:34;94564.00;;;9.99;47.12
23176;BME280;19910;42.652;23.332;2023-02-02T10:36:09;94567.97;;;9.64;47.81
23176;BME280;19910;42.652;23.332;2023-02-02T10:38:44;94550.50;;;9.53;47.88
23176;BME280;19910;42.652;23.332;2023-02-02T10:41:18;94550.66;;;9.94;46.89
23176;BME280;19910;42.652;23.332;2023-02-02T10:44:05;94547.50;;;9.92;47.47
23176;BME280;19910;42.652;23.332;2023-02-02T10:46:37;94540.81;;;9.43;47.43
23176;BME280;19910;42.652;23.332;2023-02-02T10:49:14;94527.31;;;9.35;47.41
23176;BME280;19910;42.652;23.332;2023-02-02T10:51:47;94516.38;;;9.22;48.07
23176;BME280;19910;42.652;23.332;2023-02-02T10:54:28;94520.53;;;9.11;47.71
23176;BME280;19910;42.652;23.332;2023-02-02T10:57:03;94500.56;;;9.50;47.34
23176;BME280;19910;42.652;23.332;2023-02-02T10:59:37;94497.66;;;9.64;46.27
23176;BME280;19910;42.652;23.332;2023-02-02T11:02:09;94482.72;;;9.58;46.47
23176;BME280;19910;42.652;23.332;2023-02-02T11:04:36;94491.41;;;9.72;45.84
23176;BME280;19910;42.652;23.332;2023-02-02T11:07:21;94496.63;;;9.77;45.95
23176;BME280;19910;42.652;23.332;2023-02-02T11:09:49;94493.19;;;9.68;47.01
23176;BME280;19910;42.652;23.332;2023-02-02T11:12:21;94476.06;;;9.47;45.94
23176;BME280;19910;42.652;23.332;2023-02-02T11:14:57;94476.69;;;9.52;47.02
23176;BME280;19910;42.652;23.332;2023-02-02T11:17:26;94489.47;;;9.35;46.43
23176;BME280;19910;42.652;23.332;2023-02-02T11:19:53;94480.25;;;9.36;45.62
23176;BME280;19910;42.652;23.332;2023-02-02T11:22:27;94469.47;;;9.18;46.31
23176;BME280;19910;42.652;23.332;2023-02-02T11:25:01;94467.59;;;9.57;46.47
23176;BME280;19910;42.652;23.332;2023-02-02T11:27:31;94468.78;;;9.77;45.98
23176;BME280;19910;42.652;23.332;2023-02-02T11:30:09;94459.81;;;9.85;45.00
23176;BME280;19910;42.652;23.332;2023-02-02T11:32:37;94454.00;;;9.74;45.46
23176;BME280;19910;42.652;23.332;2023-02-02T11:35:14;94442.06;;;10.05;47.26
23176;BME280;19910;42.652;23.332;2023-02-02T11:37:56;94457.09;;;10.23;50.38
23176;BME280;19910;42.652;23.332;2023-02-02T11:40:32;94441.31;;;9.95;45.20
23176;BME280;19910;42.652;23.332;2023-02-02T11:43:01;94454.72;;;9.92;45.01
23176;BME280;19910;42.652;23.332;2023-02-02T11:45:35;94439.59;;;9.61;44.86
23176;BME280;19910;42.652;23.332;2023-02-02T11:48:06;94440.69;;;9.69;45.42
23176;BME280;19910;42.652;23.332;2023-02-02T11:50:35;94438.06;;;9.81;45.40
23176;BME280;19910;42.652;23.332;2023-02-02T11:53:03;94432.28;;;9.91;45.13
23176;BME280;19910;42.652;23.332;2023-02-02T11:55:31;94430.56;;;10.08;45.09
23176;BME280;19910;42.652;23.332;2023-02-02T11:58:17;94421.84;;;10.02;44.82
23176;BME280;19910;42.652;23.332;2023-02-02T12:00:49;94416.97;;;9.66;44.13
23176;BME280;19910;42.652;23.332;2023-02-02T12:03:23;94421.16;;;9.84;44.89
23176;BME280;19910;42.652;23.332;2023-02-02T12:05:50;94422.13;;;10.09;46.63
23176;BME280;19910;42.652;23.332;2023-02-02T12:08:17;94428.44;;;9.92;43.83
23176;BME280;19910;42.652;23.332;2023-02-02T12:10:50;94423.78;;;9.72;43.98
23176;BME280;19910;42.652;23.332;2023-02-02T12:13:28;94416.53;;;9.85;44.01
23176;BME280;19910;42.652;23.332;2023-02-02T12:16:04;94432.28;;;9.91;45.30
23176;BME280;19910;42.652;23.332;2023-02-02T12:18:42;94408.63;;;10.30;44.25
23176;BME280;19910;42.652;23.332;2023-02-02T12:21:14;94421.56;;;10.45;44.64
23176;BME280;19910;42.652;23.332;2023-02-02T12:23:53;94427.53;;;10.09;45.00
23176;BME280;19910;42.652;23.332;2023-02-02T12:26:29;94420.63;;;9.70;45.62
23176;BME280;19910;42.652;23.332;2023-02-02T12:29:22;94420.06;;;9.56;47.30
23176;BME280;19910;42.652;23.332;2023-02-02T12:32:10;94427.03;;;9.57;46.72
23176;BME280;19910;42.652;23.332;2023-02-02T12:34:53;94429.41;;;9.20;47.07
23176;BME280;19910;42.652;23.332;2023-02-02T12:37:39;94434.88;;;9.12;46.58
23176;BME280;19910;42.652;23.332;2023-02-02T12:40:31;94435.69;;;8.95;45.43
23176;BME280;19910;42.652;23.332;2023-02-02T12:43:13;94428.88;;;8.89;45.55
23176;BME280;19910;42.652;23.332;2023-02-02T12:45:56;94433.63;;;8.92;45.11
23176;BME280;19910;42.652;23.332;2023-02-02T12:48:51;94439.72;;;8.72;45.56
23176;BME280;19910;42.652;23.332;2023-02-02T12:51:40;94438.13;;;8.71;46.47
23176;BME280;19910;42.652;23.332;2023-02-02T12:54:23;94437.03;;;8.54;46.25
23176;BME280;19910;42.652;23.332;2023-02-02T12:56:58;94415.94;;;8.39;46.43
23176;BME280;19910;42.652;23.332;2023-02-02T12:59:46;94441.97;;;8.52;46.41
23176;BME280;19910;42.652;23.332;2023-02-02T13:02:24;94432.59;;;8.50;46.80
23176;BME280;19910;42.652;23.332;2023-02-02T13:05:04;94434.00;;;8.30;47.42
23176;BME280;19910;42.652;23.332;2023-02-02T13:07:39;94430.66;;;8.16;47.04
23176;BME280;19910;42.652;23.332;2023-02-02T13:10:15;94441.59;;;8.11;47.14
23176;BME280;19910;42.652;23.332;2023-02-02T13:12:47;94434.00;;;8.13;47.94
23176;BME280;19910;42.652;23.332;2023-02-02T13:15:19;94440.03;;;8.27;47.95
23176;BME280;19910;42.652;23.332;2023-02-02T13:17:50;94434.81;;;8.39;47.47
23176;BME280;19910;42.652;23.332;2023-02-02T13:20:24;94429.41;;;8.48;46.99
23176;BME280;19910;42.652;23.332;2023-02-02T13:22:58;94438.78;;;8.50;47.51
23176;BME280;19910;42.652;23.332;2023-02-02T13:25:29;94428.63;;;8.47;47.50
23176;BME280;19910;42.652;23.332;2023-02-02T13:27:57;94428.94;;;8.54;47.24